Blue Oak Ranch Reserve, California Weather observations

Data are for 10 minute period ending at time listed.
 Day   Time   Solar   Ave.   Ave.  Ave.  Vector  Max.   Baro.   Total    
  of    of     Rad.   Air    Rel.  Wind   Wind   Wind  Press.  Precip.   
Year   Day            Temp.  Hum.  Speed  Dir.   Gust                    
2019   (PST)  Kw/m2    F      %     mph   deg.    mph    mb.     in.     
-------------------------------------------------------------------------
 198    0:00   0.00   49.2    71    1.3   296     2.8   947.2    0.00 
 198    0:10   0.00   48.8    72    0.2    46     1.6   947.0    0.00 
 198    0:20   0.00   49.2    71    1.2   291     2.4   947.0    0.00 
 198    0:30   0.00   49.2    72    0.6   301     1.5   946.9    0.00 
 198    0:40   0.00   49.2    72    0.1   209     0.9   946.8    0.00 
 198    0:50   0.00   49.4    71    0.3   293     1.5   946.7    0.00 
 198    1:00   0.00   49.5    72    0.5   329     1.5   946.7    0.00 
 198    1:10   0.00   48.7    73    1.5    72     2.8   946.6    0.00 
 198    1:20   0.00   48.2    75    0.9   251     2.1   946.4    0.00 
 198    1:30   0.00   48.1    75    0.7   303     2.6   946.4    0.00 
 198    1:40   0.00   48.1    75    1.5    37     3.0   946.4    0.00 
 198    1:50   0.00   48.0    76    0.9    42     2.2   946.3    0.00 
 198    2:00   0.00   48.2    76    0.3   295     1.3   946.2    0.00 
 198    2:10   0.00   47.9    76    0.6    45     1.9   946.2    0.00 
 198    2:20   0.00   47.1    78    1.2    48     2.0   946.2    0.00 
 198    2:30   0.00   46.9    79    0.7   308     1.7   946.1    0.00 
 198    2:40   0.00   46.9    79    0.4   344     1.4   946.0    0.00 
 198    2:50   0.00   46.9    79    0.7    31     2.3   945.9    0.00 
 198    3:00   0.00   46.3    80    0.5    71     1.8   945.8    0.00 
 198    3:10   0.00   46.5    81    0.2     0     1.2   945.8    0.00 
 198    3:20   0.00   46.9    81    0.4   359     2.4   945.8    0.00 
 198    3:30   0.00   47.4    82    0.2     0     1.1   945.8    0.00 
 198    3:40   0.00   47.6    83    0.4   360     1.9   945.8    0.00 
 198    3:50   0.00   47.0    83    0.1   360     1.0   945.9    0.00 
 198    4:00   0.00   47.0    84    0.0     0     0.0   945.9    0.00 
 198    4:10   0.00   46.7    85    0.0   348     0.3   945.9    0.00 
 198    4:20   0.00   46.9    87    0.1   355     0.7   946.0    0.00 
 198    4:30   0.00   47.1    87    0.1   150     1.4   946.2    0.00 
 198    4:40   0.00   47.1    88    0.6   128     1.8   946.3    0.00 
 198    4:50   0.00   46.6    89    1.3   129     2.1   946.2    0.00 
 198    5:00   0.00   46.5    91    1.3   121     2.4   946.2    0.00 
 198    5:10   0.01   46.5    92    0.2   121     1.4   946.3    0.00 
 198    5:20   0.01   46.8    93    0.4   135     2.6   946.3    0.00 
 198    5:30   0.02   47.0    93    0.1   116     1.6   946.2    0.00 
 198    5:40   0.02   47.0    94    0.3   292     1.4   946.4    0.00 
 198    5:50   0.03   47.2    94    0.1   197     1.5   946.5    0.00 
 198    6:00   0.06   47.4    94    0.7   288     2.0   946.4    0.00 
 198    6:10   0.14   48.5    94    0.8   312     2.2   946.6    0.00 
 198    6:20   0.17   50.4    93    0.8    71     1.8   946.8    0.00 
 198    6:30   0.20   51.8    88    1.1   143     2.6   946.9    0.00 
 198    6:40   0.22   52.7    83    1.9   141     2.9   947.0    0.00 
 198    6:50   0.25   54.0    78    0.9   153     2.1   947.0    0.00 
 198    7:00   0.28   55.8    74    1.9   142     3.4   947.1    0.00 
 198    7:10   0.31   55.9    74    1.8   143     2.9   947.1    0.00 
 198    7:20   0.34   57.4    70    1.6   154     2.8   947.1    0.00 
 198    7:30   0.38   59.8    64    1.0   126     2.5   947.0    0.00 
 198    7:40   0.41   61.8    60    2.0   144     3.6   946.9    0.00 
 198    7:50   0.44   61.9    61    2.0   157     3.7   947.0    0.00 
 198    8:00   0.47   63.0    59    2.8   152     4.8   947.1    0.00 
 198    8:10   0.50   63.3    59    3.3   139     5.8   947.2    0.00 
 198    8:20   0.53   65.3    54    1.8   154     3.4   947.3    0.00 
 198    8:30   0.56   67.3    52    2.4   155     4.5   947.2    0.00 
 198    8:40   0.60   67.8    51    2.9   148     4.9   947.2    0.00 
 198    8:50   0.63   68.6    48    3.6   135     5.3   947.2    0.00 
 198    9:00   0.65   69.8    46    3.4   144     5.9   947.1    0.00 
 198    9:10   0.69   70.9    44    4.0   154     6.7   947.2    0.00 
 198    9:20   0.71   72.3    44    3.9   213     8.4   947.3    0.00 
 198    9:30   0.74   73.4    47    4.3   241     8.0   947.4    0.00 
 198    9:40   0.76   75.1    45    4.3   258     8.0   947.4    0.00 
 198    9:50   0.79   74.6    46    3.9   255     7.3   947.5    0.00 
 198   10:00   0.81   75.0    45    4.6   240     7.0   947.5    0.00 
 198   10:10   0.82   75.0    45    4.2   231     7.1   947.6    0.00 
 198   10:20   0.84   76.5    43    5.2   263    10.4   947.6    0.00 
 198   10:30   0.86   77.4    42    5.3   266     9.0   947.8    0.00 
 198   10:40   0.88   77.2    42    5.8   264     9.2   947.8    0.00 
 198   10:50   0.90   76.4    42    5.3   245     8.8   947.9    0.00 
 198   11:00   0.91   76.3    42    5.0   238     8.4   947.9    0.00 
 198   11:10   0.92   76.5    41    4.4   214     8.3   947.9    0.00 
 198   11:20   0.93   77.9    40    3.7   242     7.8   947.9    0.00 
 198   11:30   0.94   79.0    39    4.0   235     7.9   948.0    0.00 
 198   11:40   0.95   79.0    38    5.0   241    10.4   948.0    0.00 
 198   11:50   0.96   80.2    36    5.1   249     8.9   948.1    0.00 
 198   12:00   0.96   80.6    34    6.3   265    11.1   948.1    0.00 
 198   12:10   0.96   80.0    34    5.6   265     8.7   948.1    0.00 
 198   12:20   0.96   80.3    32    5.6   235     8.6   948.1    0.00 
 198   12:30   0.96   79.7    33    6.4   272    10.7   948.1    0.00 
 198   12:40   0.96   80.5    32    5.8   253    11.0   947.9    0.00 
 198   12:50   0.95   81.6    32    5.4   260     8.5   947.9    0.00 
 198   13:00   0.92   81.6    31    5.5   242     9.6   948.0    0.00 
 198   13:10   0.94   82.7    31    5.1   253     9.2   948.1    0.00 
 198   13:20   0.93   82.1    31    4.7   245    10.5   948.1    0.00 
 198   13:30   0.92   82.5    30    6.8   258    11.1   948.0    0.00 
 198   13:40   0.91   83.2    30    5.2   270    11.0   948.0    0.00 
 198   13:50   0.89   84.3    29    5.3   270    10.2   948.0    0.00 
 198   14:00   0.88   84.5    28    6.1   277    10.8   947.9    0.00 
 198   14:10   0.86   84.2    28    5.7   224    10.3   947.9    0.00 
 198   14:20   0.84   84.5    28    6.2   257    11.3   948.0    0.00 
 198   14:30   0.82   84.9    28    5.1   260     9.9   947.9    0.00 
 198   14:40   0.79   85.3    29    4.4   255     9.9   947.8    0.00 
 198   14:50   0.76   85.1    29    5.8   240    11.8   947.7    0.00 
 198   15:00   0.74   85.0    29    6.3   237    12.7   947.6    0.00 
 198   15:10   0.72   84.7    27    7.1   245    12.5   947.6    0.00 
 198   15:20   0.69   84.5    28    6.4   257    10.9   947.6    0.00 
 198   15:30   0.68   84.6    31    6.6   253    11.5   947.7    0.00 
 198   15:40   0.65   84.9    32    6.3   255    13.1   947.7    0.00 
 198   15:50   0.62   84.1    34    6.9   241    13.0   947.7    0.00 
 198   16:00   0.59   83.8    35    6.3   246    10.7   947.7    0.00 
 198   16:10   0.56   84.0    33    5.7   244     9.7   947.7    0.00 
 198   16:20   0.53   83.6    34    5.6   242    10.4   947.7    0.00 
 198   16:30   0.50   83.1    33    6.0   235    10.3   947.7    0.00 
 198   16:40   0.48   83.3    33    6.1   241    10.5   947.6    0.00 
 198   16:50   0.44   83.0    35    5.0   254     8.3   947.6    0.00 
 198   17:00   0.41   82.3    36    5.5   242     9.6   947.6    0.00 
 198   17:10   0.38   81.9    38    5.8   243    10.2   947.6    0.00 
 198   17:20   0.35   80.7    40    5.2   242     8.0   947.6    0.00 
 198   17:30   0.32   80.8    38    4.8   261     9.7   947.7    0.00 
 198   17:40   0.29   80.3    39    5.0   245     8.5   947.7    0.00 
 198   17:50   0.26   79.2    39    4.8   241     7.8   947.7    0.00 
 198   18:00   0.23   79.0    39    5.2   265     8.8   947.7    0.00 
 198   18:10   0.20   79.4    38    6.3   283     8.5   947.7    0.00 
 198   18:20   0.17   79.0    38    5.5   284     7.4   947.7    0.00 
 198   18:30   0.14   78.5    40    3.8   274     6.3   947.8    0.00 
 198   18:40   0.11   77.8    42    2.7   256     4.7   947.8    0.00 
 198   18:50   0.08   76.9    44    1.9   245     3.7   947.7    0.00 
 198   19:00   0.06   75.2    47    1.2   238     3.1   947.7    0.00 
 198   19:10   0.03   72.4    50    0.2   219     1.5   947.8    0.00 
 198   19:20   0.01   69.6    54    0.8    23     1.8   947.8    0.00 
 198   19:30   0.01   67.9    56    0.7    20     1.8   947.8    0.00 
 198   19:40   0.00   66.6    58    0.6    44     2.0   947.8    0.00 
 198   19:50   0.00   65.6    60    0.9     6     2.1   947.9    0.00 
 198   20:00   0.00   65.0    62    0.9   279     2.0   948.0    0.00 
 198   20:10   0.00   64.4    63    0.4   290     1.5   948.0    0.00 
 198   20:20   0.00   63.5    65    0.7    64     1.6   948.0    0.00 
 198   20:30   0.00   63.1    66    0.5   350     1.2   948.1    0.00 
 198   20:40   0.00   62.5    67    0.4   272     1.8   948.1    0.00 
 198   20:50   0.00   62.0    68    0.0   286     0.7   948.1    0.00 
 198   21:00   0.00   61.7    69    0.0     0     0.0   948.2    0.00 
 198   21:10   0.00   60.9    70    0.6   270     1.2   948.2    0.00 
 198   21:20   0.00   60.4    71    1.9   297     3.2   948.2    0.00 
 198   21:30   0.00   59.7    72    0.4     2     1.8   948.1    0.00 
 198   21:40   0.00   59.7    74    0.2    52     1.2   948.1    0.00 
 198   21:50   0.00   59.7    74    0.4   120     1.5   948.1    0.00 
 198   22:00   0.00   59.0    76    0.9    61     1.7   948.1    0.00 
 198   22:10   0.00   58.4    76    0.5    25     1.4   948.1    0.00 
 198   22:20   0.00   58.0    78    0.5   290     1.8   948.0    0.00 
 198   22:30   0.00   58.2    78    0.3   272     1.2   947.9    0.00 
 198   22:40   0.00   57.9    79    0.4   302     1.3   947.9    0.00 
 198   22:50   0.00   57.5    79    0.5   102     1.0   947.9    0.00 

Return to Blue Oak Ranch Reserve graphs page.


Western Regional Climate Center,wrcc@dri.edu